Nearby METAR Reports

 

KDVT - Phoenix/Deer Vly, Arizona, USA
Distance from station: SW 14mi, 22km
Updated: 2022-09-30 11:53
NOT Current
Clear
Clear
 Wind from S
Wind: S 8 mph , 13 km/h
Temperature: 90°F , 32°C
Dew Point: 45°F , 7°C
Humidity: 21%
Barometer: 29.88 inHg , 1011.9 hPa
Clouds: Clear
Visibility: 10 miles , 16 km
2022/09/30 18:53 KDVT 301853Z 18007KT 130V200 10SM CLR 32/07 A2988 RMK AO2 SLP092 T03220067
KSDL - Scottsdale, Arizona, USA
Distance from station: S 15mi, 23km
Updated: 2022-09-30 11:53
NOT Current
Clear
Clear
 Wind from SSE
Wind: SSE 7 mph , 11 km/h, Gust: 18 mph , 30 km/h
Temperature: 91°F , 33°C
Dew Point: 45°F , 7°C
Humidity: 20%
Barometer: 29.88 inHg , 1011.9 hPa
Clouds: Clear
Visibility: 10 miles , 16 km
2022/09/30 18:53 KSDL 301853Z 15006G16KT 10SM CLR 33/07 A2988 RMK AO2 SLP093 T03280072
KFFZ - Mesa/Falcon Fld, Arizona, USA
Distance from station: SSE 27mi, 44km
Updated: 2022-09-30 11:54
NOT Current
Clear
Clear
 Wind from S
Wind: S 8 mph , 13 km/h
Temperature: 91°F , 33°C
Dew Point: 48°F , 9°C
Humidity: 23%
Barometer: 29.87 inHg , 1011.5 hPa
Clouds: Clear
Visibility: 10 miles , 16 km
2022/09/30 18:54 KFFZ 301854Z 19007KT 10SM CLR 33/09 A2987 RMK AO2 SLP089 T03280094
 
KPHX - Phoenix/Sky Hrbr, Arizona, USA
Distance from station: SSW 28mi, 45km
Updated: 2022-09-30 11:51
NOT Current
Few Clouds
Few Clouds
 Wind from SE
Wind: SE 6 mph , 9 km/h
Temperature: 93°F , 34°C
Dew Point: 54°F , 12°C
Humidity: 26%
Barometer: 29.84 inHg , 1010.5 hPa
Clouds: Few Clouds
Visibility: 10 miles , 16 km
Cloud details: Few Clouds 10000 ft
Few Clouds 25000 ft
2022/09/30 18:51 KPHX 301851Z 14005KT 10SM FEW100 FEW250 34/12 A2984 RMK AO2 SLP085 T03390117
KLUF - Luke Afb/Glendal, Arizona, USA
Distance from station: SW 34mi, 55km
Updated: 2022-09-30 11:55
NOT Current
Clear
Clear
 Wind from E
Wind: E 3 mph , 6 km/h
Temperature: 91°F , 33°C
Dew Point: 52°F , 11°C
Humidity: 26%
Barometer: 29.84 inHg , 1010.5 hPa
Clouds: Clear
Visibility: 10 miles , 16 km
2022/09/30 18:55 KLUF 301855Z 10003KT 10SM CLR 33/11 A2984 RMK AO2A SLP089 T03330106 $
KGYR - Goodyear Municip, Arizona, USA
Distance from station: SW 39mi, 63km
Updated: 2022-09-30 11:47
NOT Current
Few Clouds
Few Clouds
 Wind from E
Wind: E 8 mph , 13 km/h
Temperature: 91°F , 33°C
Dew Point: 55°F , 13°C
Humidity: 30%
Barometer: 29.86 inHg , 1011.2 hPa
Clouds: Few Clouds
Visibility: 10 miles , 16 km
Cloud details: Few Clouds 10000 ft
2022/09/30 18:47 KGYR 301847Z 08007KT 10SM FEW100 33/13 A2986
 
KIWA - Chandler/Mesa, Arizona, USA
Distance from station: SSE 39mi, 63km
Updated: 2022-09-30 11:51
NOT Current
Clear
Clear
 Wind from S
Wind: S 5 mph , 7 km/h
Temperature: 90°F , 32°C
Dew Point: 48°F , 9°C
Humidity: 24%
Barometer: 29.89 inHg , 1012.2 hPa
Clouds: Clear
Visibility: 10 miles , 16 km
2022/09/30 18:51 KIWA 301851Z 19004KT 10SM CLR 32/09 A2989
KPAN - Payson, Arizona, USA
Distance from station: NE 44mi, 70km
Updated: 2022-09-30 12:15
Clear
Clear
 Wind from N
Wind: N 0 mph , 0 km/h, Gust: 13 mph , 20 km/h
Temperature: 77°F , 25°C
Dew Point: 36°F , 2°C
Humidity: 22%
Barometer: 30.12 inHg , 1020 hPa
Clouds: Clear
Visibility: 10 miles , 16 km
2022/09/30 19:15 KPAN 301915Z AUTO 00000G11KT 10SM CLR 25/02 A3012 RMK AO2 PWINO TSNO
KBXK - Buckeye, Arizona, USA
Distance from station: WSW 53mi, 86km
Updated: 2022-09-30 12:15
Clear
Clear
 Wind from SE
Wind: SE 7 mph , 11 km/h
Temperature: 90°F , 32°C
Dew Point: 55°F , 13°C
Humidity: 31%
Barometer: 29.85 inHg , 1010.8 hPa
Clouds: Clear
Visibility: 10 miles , 16 km
2022/09/30 19:15 KBXK 301915Z AUTO 13006KT 10SM CLR 32/13 A2985 RMK A01
 
KA39 - Maricopa Ak-Chin, Arizona, USA
Distance from station: S 58mi, 94km
Updated: 2022-09-15 07:55
NOT Current
Haze, Mostly cloudy
Haze, Mostly cloudy
 Wind from SSE
Wind: SSE 7 mph , 11 km/h
Temperature: 77°F , 25°C
Dew Point: 64°F , 18°C
Humidity: 65%
Barometer: 29.98 inHg , 1015.2 hPa
Summary: Haze
Clouds: Mostly cloudy
Visibility: 5 miles , 8 km
Cloud details: Mostly cloudy 9500 ft
Mostly cloudy 12000 ft
2022/09/15 14:55 KA39 151455Z AUTO 15006KT 5SM HZ BKN095 BKN120 25/18 A2998 RMK AO2
KPRC - Prescott, Arizona, USA
Distance from station: NNW 64mi, 103km
Updated: 2022-09-30 11:53
NOT Current
Clear
Clear
 Wind from varies
Wind: varies 3 mph , 6 km/h
Temperature: 77°F , 25°C
Dew Point: 45°F , 7°C
Humidity: 32%
Barometer: 30.11 inHg , 1019.6 hPa
Clouds: Clear
Visibility: 10 miles , 16 km
2022/09/30 18:53 KPRC 301853Z VRB03KT 10SM CLR 25/07 A3011 RMK AO2 SLP123 T02500067
KSEZ - Sedona, Arizona, USA
Distance from station: N 71mi, 114km
Updated: 2022-09-30 12:15

 Wind from W
Wind: W 5 mph , 7 km/h
Temperature: 81°F , 27°C
Dew Point: 43°F , 6°C
Humidity: 26%
Barometer: 30.09 inHg , 1019 hPa
Visibility: 10 miles , 16 km
2022/09/30 19:15 KSEZ 301915Z AUTO 28004KT 10SM 27/06 A3009 RMK AO2
 
KFLG - Flagstaff, Arizona, USA
Distance from station: N 91mi, 147km
Updated: 2022-09-30 11:57
NOT Current
Clear
Clear
 Wind from SW
Wind: SW 10 mph , 17 km/h
Temperature: 72°F , 22°C
Dew Point: 36°F , 2°C
Humidity: 27%
Barometer: 30.22 inHg , 1023.4 hPa
Clouds: Clear
Visibility: 10 miles , 16 km
2022/09/30 18:57 KFLG 301857Z 23009KT 10SM CLR 22/02 A3022 RMK AO2 SLP147 T02170017